createdAt,value
2018-09-18T00:01:06.756Z,10.60
2018-09-18T00:03:36.626Z,10.70
2018-09-18T00:06:06.613Z,10.60
2018-09-18T00:08:35.589Z,10.60
2018-09-18T00:11:09.587Z,10.60
2018-09-18T00:13:39.177Z,10.60
2018-09-18T00:16:12.382Z,10.60
2018-09-18T00:18:40.761Z,10.70
2018-09-18T00:21:08.990Z,10.60
2018-09-18T00:23:37.937Z,10.60
2018-09-18T00:26:07.162Z,10.60
2018-09-18T00:28:36.852Z,10.70
2018-09-18T00:31:06.050Z,10.70
2018-09-18T00:33:34.691Z,10.60
2018-09-18T00:36:03.614Z,10.60
2018-09-18T00:38:32.076Z,10.70
2018-09-18T00:41:00.165Z,10.70
2018-09-18T00:43:28.811Z,10.60
2018-09-18T00:45:57.245Z,10.60
2018-09-18T00:48:24.812Z,10.60
2018-09-18T00:50:54.013Z,10.60
2018-09-18T00:53:23.050Z,10.70
2018-09-18T00:55:51.245Z,10.70
2018-09-18T00:58:19.920Z,10.70
2018-09-18T01:00:49.053Z,10.70
2018-09-18T01:03:18.614Z,10.70
2018-09-18T01:05:47.804Z,10.70
2018-09-18T01:08:16.918Z,10.70
2018-09-18T01:10:45.311Z,10.70
2018-09-18T01:13:13.402Z,10.70
2018-09-18T01:15:41.384Z,10.70
2018-09-18T01:18:09.869Z,10.70
2018-09-18T01:20:38.726Z,10.70
2018-09-18T01:23:06.349Z,10.70
2018-09-18T01:25:34.641Z,10.70
2018-09-18T01:28:03.837Z,10.70
2018-09-18T01:30:32.229Z,10.70
2018-09-18T01:33:01.127Z,10.70
2018-09-18T01:35:29.373Z,10.70
2018-09-18T01:37:57.453Z,10.70
2018-09-18T01:40:26.381Z,10.70
2018-09-18T01:42:55.610Z,10.70
2018-09-18T01:45:24.414Z,10.80
2018-09-18T01:47:52.647Z,10.80
2018-09-18T01:50:21.659Z,10.80
2018-09-18T01:52:50.105Z,10.80
2018-09-18T01:55:18.032Z,10.80
2018-09-18T01:57:45.615Z,10.80
2018-09-18T02:00:13.926Z,10.80
2018-09-18T02:02:43.509Z,10.80
2018-09-18T02:05:11.717Z,10.80
2018-09-18T02:07:40.282Z,10.80
2018-09-18T02:10:12.359Z,10.90
2018-09-18T02:12:40.106Z,10.80
2018-09-18T02:15:08.528Z,10.80
2018-09-18T02:17:37.874Z,10.80
2018-09-18T02:20:06.916Z,10.90
2018-09-18T02:22:34.750Z,10.90
2018-09-18T02:25:02.665Z,10.90
2018-09-18T02:27:30.555Z,10.90
2018-09-18T02:29:59.371Z,10.90
2018-09-18T02:32:27.239Z,10.90
2018-09-18T02:34:56.156Z,10.90
2018-09-18T02:37:24.018Z,10.90
2018-09-18T02:39:52.905Z,10.90
2018-09-18T02:42:21.415Z,10.90
2018-09-18T02:44:50.472Z,10.90
2018-09-18T02:47:20.033Z,11.00
2018-09-18T02:49:49.454Z,10.90
2018-09-18T02:52:19.552Z,10.90
2018-09-18T02:54:48.942Z,11.00
2018-09-18T02:57:16.806Z,10.90
2018-09-18T02:59:44.882Z,10.90
2018-09-18T03:02:12.889Z,10.90
2018-09-18T03:04:40.817Z,10.90
2018-09-18T03:07:10.502Z,10.90
2018-09-18T03:09:40.094Z,11.00
2018-09-18T03:12:09.359Z,11.00
2018-09-18T03:14:37.197Z,11.00
2018-09-18T03:17:05.433Z,11.00
2018-09-18T03:19:33.669Z,11.00
2018-09-18T03:22:03.454Z,11.00
2018-09-18T03:24:31.508Z,11.10
2018-09-18T03:26:59.768Z,11.10
2018-09-18T03:29:28.243Z,11.10
2018-09-18T03:31:57.318Z,11.10
2018-09-18T03:34:26.449Z,11.10
2018-09-18T03:36:56.560Z,11.10
2018-09-18T03:39:25.590Z,11.10
2018-09-18T03:41:55.561Z,11.10
2018-09-18T03:44:24.598Z,11.10
2018-09-18T03:46:52.586Z,11.10
2018-09-18T03:49:20.756Z,11.10
2018-09-18T03:51:48.550Z,11.10
2018-09-18T03:54:16.801Z,11.10
2018-09-18T03:56:46.444Z,11.10
2018-09-18T03:59:15.246Z,11.10
2018-09-18T04:01:44.564Z,11.10
2018-09-18T04:04:13.351Z,11.10
2018-09-18T04:06:41.763Z,11.20
2018-09-18T04:09:11.774Z,11.10
2018-09-18T04:11:40.733Z,11.20
2018-09-18T04:14:10.214Z,11.10
2018-09-18T04:16:38.787Z,11.10
2018-09-18T04:19:07.558Z,11.10
2018-09-18T04:21:42.713Z,11.20
2018-09-18T04:24:10.950Z,11.10
2018-09-18T04:26:40.030Z,11.20
2018-09-18T04:29:09.016Z,11.20
2018-09-18T04:31:38.158Z,11.20
2018-09-18T04:34:07.053Z,11.20
2018-09-18T04:36:36.359Z,11.20
2018-09-18T04:39:07.113Z,11.20
2018-09-18T04:41:35.985Z,11.20
2018-09-18T04:44:04.772Z,11.20
2018-09-18T04:46:33.298Z,11.30
2018-09-18T04:49:01.617Z,11.30
2018-09-18T04:51:30.789Z,11.30
2018-09-18T04:53:58.891Z,11.30
2018-09-18T04:56:26.826Z,11.40
2018-09-18T04:58:54.804Z,11.40
2018-09-18T05:01:23.431Z,11.40
2018-09-18T05:03:52.161Z,11.40
2018-09-18T05:06:20.125Z,11.40
2018-09-18T05:08:48.702Z,11.40
2018-09-18T05:11:16.553Z,11.50
2018-09-18T05:13:44.233Z,11.50
2018-09-18T05:16:13.021Z,11.50
2018-09-18T05:18:42.382Z,11.50
2018-09-18T05:21:10.789Z,11.50
2018-09-18T05:23:39.339Z,11.50
2018-09-18T05:26:07.881Z,11.50
2018-09-18T05:28:36.064Z,11.50
2018-09-18T05:31:04.229Z,11.50
2018-09-18T05:33:33.303Z,11.50
2018-09-18T05:36:02.241Z,11.50
2018-09-18T05:38:31.039Z,11.50
2018-09-18T05:41:03.801Z,11.50
2018-09-18T05:43:32.034Z,11.60
2018-09-18T05:46:00.334Z,11.60
2018-09-18T05:48:32.402Z,11.60
2018-09-18T05:51:00.149Z,11.60
2018-09-18T05:53:27.909Z,11.60
2018-09-18T05:55:56.777Z,11.60
2018-09-18T05:58:25.059Z,11.70
2018-09-18T06:00:52.615Z,11.80
2018-09-18T06:03:20.761Z,12.00
2018-09-18T06:05:48.686Z,12.10
2018-09-18T06:08:16.225Z,12.10
2018-09-18T06:10:44.555Z,12.00
2018-09-18T06:13:13.156Z,12.10
2018-09-18T06:15:41.111Z,12.00
2018-09-18T06:18:09.411Z,12.10
2018-09-18T06:20:37.744Z,12.10
2018-09-18T06:23:05.852Z,12.20
2018-09-18T06:25:35.109Z,12.20
2018-09-18T06:28:04.419Z,12.20
2018-09-18T06:30:33.273Z,12.30
2018-09-18T06:33:06.596Z,12.30
2018-09-18T06:35:36.689Z,12.30
2018-09-18T06:38:06.093Z,12.40
2018-09-18T06:40:34.249Z,12.50
2018-09-18T06:43:03.801Z,12.60
2018-09-18T06:45:31.938Z,12.60
2018-09-18T06:48:01.378Z,12.60
2018-09-18T06:50:29.948Z,12.50
2018-09-18T06:52:58.850Z,12.60
2018-09-18T06:55:28.336Z,12.70
2018-09-18T06:57:57.429Z,12.70
2018-09-18T07:00:26.064Z,12.90
2018-09-18T07:02:54.743Z,13.00
2018-09-18T07:05:22.453Z,13.00
2018-09-18T07:07:49.968Z,13.00
2018-09-18T07:10:19.601Z,13.10
2018-09-18T07:12:52.117Z,13.10
2018-09-18T07:15:19.829Z,13.20
2018-09-18T07:17:47.804Z,13.20
2018-09-18T07:20:16.833Z,13.20
2018-09-18T07:22:45.490Z,13.20
2018-09-18T07:25:13.106Z,13.20
2018-09-18T07:27:41.387Z,13.30
2018-09-18T07:30:09.280Z,13.30
2018-09-18T07:32:38.185Z,13.30
2018-09-18T07:35:08.490Z,13.30
2018-09-18T07:37:36.752Z,13.30
2018-09-18T07:40:05.170Z,13.20
2018-09-18T07:42:33.712Z,13.30
2018-09-18T07:45:06.913Z,13.30
2018-09-18T07:47:36.516Z,13.30
2018-09-18T07:50:06.129Z,13.30
2018-09-18T07:52:34.295Z,13.30
2018-09-18T07:55:02.800Z,13.30
2018-09-18T07:57:31.008Z,13.40
2018-09-18T07:59:59.400Z,13.40
2018-09-18T08:02:32.381Z,13.50
2018-09-18T08:05:00.862Z,13.60
2018-09-18T08:07:29.473Z,13.70
2018-09-18T08:09:57.321Z,13.80
2018-09-18T08:12:25.349Z,13.70
2018-09-18T08:14:52.925Z,13.80
2018-09-18T08:17:21.510Z,13.70
2018-09-18T08:19:49.189Z,13.60
2018-09-18T08:22:17.648Z,13.60
2018-09-18T08:24:45.157Z,13.60
2018-09-18T08:27:13.600Z,13.60
2018-09-18T08:29:42.543Z,13.60
2018-09-18T08:32:10.298Z,13.70
2018-09-18T08:34:38.658Z,13.60
2018-09-18T08:37:08.330Z,13.70
2018-09-18T08:39:37.385Z,13.70
2018-09-18T08:42:06.691Z,13.70
2018-09-18T08:44:36.669Z,13.60
2018-09-18T08:47:05.170Z,13.60
2018-09-18T08:49:32.917Z,13.70
2018-09-18T08:52:00.618Z,13.70
2018-09-18T08:54:28.602Z,13.80
2018-09-18T08:56:57.017Z,13.90
2018-09-18T08:59:24.803Z,14.00
2018-09-18T09:01:53.562Z,14.10
2018-09-18T09:04:21.867Z,14.20
2018-09-18T09:06:49.981Z,14.20
2018-09-18T09:09:18.940Z,14.20
2018-09-18T09:11:48.004Z,14.30
2018-09-18T09:14:16.527Z,14.40
2018-09-18T09:16:44.653Z,14.40
2018-09-18T09:19:13.578Z,14.50
2018-09-18T09:21:42.397Z,14.50
2018-09-18T09:24:11.767Z,14.60
2018-09-18T09:26:40.156Z,14.70
2018-09-18T09:29:09.798Z,14.80
2018-09-18T09:31:38.030Z,14.80
2018-09-18T09:34:05.604Z,14.90
2018-09-18T09:36:33.276Z,15.00
2018-09-18T09:39:02.993Z,15.00
2018-09-18T09:41:31.318Z,15.00
2018-09-18T09:44:00.979Z,15.00
2018-09-18T09:46:29.523Z,15.00
2018-09-18T09:48:58.782Z,15.00
2018-09-18T09:51:26.596Z,15.00
2018-09-18T09:53:54.114Z,15.00
2018-09-18T09:56:22.946Z,15.20
2018-09-18T09:58:50.416Z,15.30
2018-09-18T10:01:23.928Z,15.40
2018-09-18T10:03:53.908Z,15.40
2018-09-18T10:06:22.066Z,15.40
2018-09-18T10:08:51.739Z,15.60
2018-09-18T10:11:23.127Z,15.60
2018-09-18T10:13:53.219Z,15.80
2018-09-18T10:16:21.706Z,15.90
2018-09-18T10:18:50.319Z,16.20
2018-09-18T10:21:18.194Z,16.30
2018-09-18T10:23:46.795Z,16.30
2018-09-18T10:26:15.442Z,16.50
2018-09-18T10:28:44.963Z,16.90
2018-09-18T10:31:14.072Z,17.10
2018-09-18T10:33:41.630Z,17.10
2018-09-18T10:36:09.288Z,17.00
2018-09-18T10:38:37.612Z,16.70
2018-09-18T10:41:06.646Z,16.80
2018-09-18T10:43:35.309Z,16.80
2018-09-18T10:46:08.403Z,16.80
2018-09-18T10:49:11.998Z,16.90
2018-09-18T10:51:44.193Z,16.90
2018-09-18T10:54:12.139Z,16.90
2018-09-18T10:56:40.219Z,16.90
2018-09-18T10:59:09.579Z,16.90
2018-09-18T11:01:38.568Z,16.90
2018-09-18T11:04:07.159Z,17.10
2018-09-18T11:06:35.327Z,17.10
2018-09-18T11:09:03.366Z,17.10
2018-09-18T11:11:31.500Z,17.30
2018-09-18T11:13:59.356Z,17.20
2018-09-18T11:16:27.558Z,17.30
2018-09-18T11:18:56.506Z,17.30
2018-09-18T11:21:25.754Z,17.30
2018-09-18T11:23:54.794Z,17.30
2018-09-18T11:26:24.033Z,17.30
2018-09-18T11:28:51.966Z,17.30
2018-09-18T11:31:19.899Z,17.40
2018-09-18T11:33:48.497Z,17.50
2018-09-18T11:36:17.453Z,17.40
2018-09-18T11:38:46.900Z,17.50
2018-09-18T11:41:16.495Z,17.40
2018-09-18T11:43:49.655Z,17.40
2018-09-18T11:46:18.250Z,17.40
2018-09-18T11:48:47.295Z,17.40
2018-09-18T11:51:16.403Z,17.60
2018-09-18T11:53:46.690Z,17.90
2018-09-18T11:56:15.547Z,18.00
2018-09-18T11:58:43.318Z,18.20
2018-09-18T12:01:12.389Z,18.20
2018-09-18T12:03:41.241Z,17.90
2018-09-18T12:06:09.832Z,18.10
2018-09-18T12:08:39.767Z,18.10
2018-09-18T12:11:09.614Z,18.10
2018-09-18T12:13:37.227Z,18.30
2018-09-18T12:16:05.235Z,18.50
2018-09-18T12:18:33.467Z,18.50
2018-09-18T12:21:02.990Z,18.60
2018-09-18T12:23:33.106Z,18.70
2018-09-18T12:26:00.608Z,18.50
2018-09-18T12:28:30.504Z,18.60
2018-09-18T12:31:00.119Z,18.60
2018-09-18T12:33:28.470Z,18.50
2018-09-18T12:35:57.879Z,18.40
2018-09-18T12:38:26.804Z,18.50
2018-09-18T12:40:55.200Z,18.60
2018-09-18T12:43:24.574Z,18.60
2018-09-18T12:45:53.207Z,18.60
2018-09-18T12:48:22.707Z,18.70
2018-09-18T12:50:51.871Z,18.60
2018-09-18T12:53:19.911Z,18.60
2018-09-18T12:55:47.719Z,18.80
2018-09-18T12:58:16.014Z,18.70
2018-09-18T13:00:43.875Z,18.60
2018-09-18T13:03:12.768Z,18.60
2018-09-18T13:05:42.043Z,18.60
2018-09-18T13:08:11.170Z,18.70
2018-09-18T13:10:39.923Z,18.60
2018-09-18T13:13:08.762Z,18.40
2018-09-18T13:15:37.942Z,18.60
2018-09-18T13:18:11.365Z,18.70
2018-09-18T13:20:39.753Z,18.80
2018-09-18T13:23:07.412Z,18.90
2018-09-18T13:25:35.140Z,18.90
2018-09-18T13:28:03.178Z,19.00
2018-09-18T13:30:31.101Z,19.20
2018-09-18T13:32:58.845Z,19.40
2018-09-18T13:35:26.791Z,19.50
2018-09-18T13:37:54.367Z,19.50
2018-09-18T13:40:22.016Z,19.40
2018-09-18T13:42:49.746Z,19.60
2018-09-18T13:45:18.560Z,19.60
2018-09-18T13:47:47.116Z,19.60
2018-09-18T13:50:15.993Z,19.50
2018-09-18T13:52:44.752Z,19.40
2018-09-18T13:55:13.039Z,19.40
2018-09-18T13:57:41.351Z,19.30
2018-09-18T14:00:08.877Z,19.40
2018-09-18T14:02:37.630Z,19.50
2018-09-18T14:05:05.364Z,19.40
2018-09-18T14:07:33.167Z,19.50
2018-09-18T14:10:02.743Z,19.70
2018-09-18T14:12:32.774Z,19.60
2018-09-18T14:15:00.921Z,19.70
2018-09-18T14:17:28.864Z,19.70
2018-09-18T14:19:56.659Z,19.70
2018-09-18T14:22:24.179Z,19.50
2018-09-18T14:24:52.100Z,19.30
2018-09-18T14:27:21.308Z,19.40
2018-09-18T14:29:49.956Z,19.60
2018-09-18T14:32:19.220Z,19.60
2018-09-18T14:34:48.642Z,19.70
2018-09-18T14:37:17.603Z,19.70
2018-09-18T14:39:48.183Z,19.90
2018-09-18T14:42:15.703Z,20.00
2018-09-18T14:44:44.303Z,20.00
2018-09-18T14:47:12.258Z,19.90
2018-09-18T14:49:41.541Z,20.00
2018-09-18T14:52:10.027Z,19.90
2018-09-18T14:54:37.931Z,20.00
2018-09-18T14:57:05.390Z,19.90
2018-09-18T14:59:34.807Z,19.90
2018-09-18T15:02:03.594Z,20.00
2018-09-18T15:04:33.066Z,20.10
2018-09-18T15:07:02.075Z,20.10
2018-09-18T15:09:30.842Z,20.20
2018-09-18T15:11:59.523Z,20.10
2018-09-18T15:14:28.899Z,20.00
2018-09-18T15:16:57.777Z,20.10
2018-09-18T15:19:26.801Z,20.20
2018-09-18T15:21:56.368Z,20.10
2018-09-18T15:24:25.603Z,20.10
2018-09-18T15:26:54.322Z,20.10
2018-09-18T15:29:22.104Z,20.10
2018-09-18T15:31:50.446Z,20.10
2018-09-18T15:34:18.177Z,20.00
2018-09-18T15:36:46.818Z,19.90
2018-09-18T15:39:14.850Z,19.80
2018-09-18T15:41:43.506Z,20.10
2018-09-18T15:44:11.832Z,20.00
2018-09-18T15:46:39.746Z,19.90
2018-09-18T15:49:08.072Z,19.90
2018-09-18T15:51:36.442Z,19.70
2018-09-18T15:54:04.601Z,19.90
2018-09-18T15:56:34.193Z,19.60
2018-09-18T15:59:03.081Z,19.50
2018-09-18T16:01:32.033Z,19.40
2018-09-18T16:04:00.695Z,19.40
2018-09-18T16:06:28.816Z,19.30
2018-09-18T16:08:57.591Z,19.30
2018-09-18T16:11:27.137Z,19.10
2018-09-18T16:13:56.562Z,19.10
2018-09-18T16:16:24.686Z,19.00
2018-09-18T16:18:52.375Z,19.00
2018-09-18T16:21:21.414Z,19.00
2018-09-18T16:23:49.384Z,18.90
2018-09-18T16:26:17.521Z,18.90
2018-09-18T16:28:45.333Z,18.90
2018-09-18T16:31:14.704Z,18.80
2018-09-18T16:33:43.779Z,18.90
2018-09-18T16:36:11.740Z,18.70
2018-09-18T16:38:39.575Z,18.70
2018-09-18T16:41:07.936Z,18.60
2018-09-18T16:43:36.494Z,18.60
2018-09-18T16:46:05.800Z,18.50
2018-09-18T16:48:34.155Z,18.50
2018-09-18T16:51:02.888Z,18.40
2018-09-18T16:53:31.722Z,18.30
2018-09-18T16:56:00.328Z,18.30
2018-09-18T16:58:29.172Z,18.20
2018-09-18T17:00:57.808Z,18.10
2018-09-18T17:03:25.785Z,18.20
2018-09-18T17:05:53.858Z,18.20
2018-09-18T17:08:22.590Z,18.00
2018-09-18T17:10:51.675Z,18.00
2018-09-18T17:13:21.437Z,18.00
2018-09-18T17:15:49.345Z,18.00
2018-09-18T17:18:17.374Z,17.90
2018-09-18T17:20:45.040Z,17.90
2018-09-18T17:23:13.593Z,17.80
2018-09-18T17:25:42.543Z,17.80
2018-09-18T17:28:10.609Z,17.80
2018-09-18T17:30:38.896Z,17.70
2018-09-18T17:33:10.822Z,17.60
2018-09-18T17:35:39.601Z,17.70
2018-09-18T17:38:08.801Z,17.60
2018-09-18T17:40:37.036Z,17.60
2018-09-18T17:43:06.087Z,17.60
2018-09-18T17:45:33.622Z,17.60
2018-09-18T17:48:01.440Z,17.60
2018-09-18T17:50:29.688Z,17.60
2018-09-18T17:52:57.572Z,17.60
2018-09-18T17:55:25.243Z,17.50
2018-09-18T17:57:54.414Z,17.50
2018-09-18T18:00:22.503Z,17.50
2018-09-18T18:02:51.786Z,17.50
2018-09-18T18:05:21.483Z,17.40
2018-09-18T18:07:51.021Z,17.50
2018-09-18T18:10:18.902Z,17.50
2018-09-18T18:12:47.040Z,17.40
2018-09-18T18:15:15.490Z,17.30
2018-09-18T18:17:44.884Z,17.20
2018-09-18T18:20:19.115Z,17.10
2018-09-18T18:22:48.238Z,17.00
2018-09-18T18:25:16.660Z,17.00
2018-09-18T18:27:44.536Z,17.00
2018-09-18T18:30:13.784Z,17.00
2018-09-18T18:32:43.060Z,17.00
2018-09-18T18:35:10.602Z,16.80
2018-09-18T18:37:38.923Z,16.80
2018-09-18T18:40:07.271Z,16.70
2018-09-18T18:42:35.588Z,16.60
2018-09-18T18:45:03.507Z,16.60
2018-09-18T18:47:33.199Z,16.50
2018-09-18T18:50:01.020Z,16.50
2018-09-18T18:52:30.077Z,16.50
2018-09-18T18:54:59.753Z,16.40
2018-09-18T18:57:32.458Z,16.40
2018-09-18T19:00:00.937Z,16.30
2018-09-18T19:02:29.013Z,16.30
2018-09-18T19:04:57.618Z,16.30
2018-09-18T19:07:27.265Z,16.20
2018-09-18T19:09:55.090Z,16.20
2018-09-18T19:12:23.805Z,16.10
2018-09-18T19:14:52.217Z,16.10
2018-09-18T19:17:20.455Z,16.00
2018-09-18T19:19:49.724Z,16.00
2018-09-18T19:22:17.637Z,15.90
2018-09-18T19:24:45.605Z,15.90
2018-09-18T19:27:13.983Z,15.90
2018-09-18T19:29:42.530Z,16.10
2018-09-18T19:32:10.566Z,16.00
2018-09-18T19:34:38.171Z,16.00
2018-09-18T19:37:08.219Z,15.90
2018-09-18T19:39:36.584Z,15.90
2018-09-18T19:42:04.568Z,15.90
2018-09-18T19:44:34.501Z,15.90
2018-09-18T19:47:02.885Z,15.90
2018-09-18T19:49:33.008Z,15.90
2018-09-18T19:52:02.271Z,15.80
2018-09-18T19:54:30.639Z,15.80
2018-09-18T19:57:00.348Z,15.90
2018-09-18T19:59:28.307Z,15.90
2018-09-18T20:01:55.959Z,15.90
2018-09-18T20:04:23.969Z,15.90
2018-09-18T20:06:52.043Z,15.90
2018-09-18T20:09:20.238Z,15.90
2018-09-18T20:11:48.963Z,15.90
2018-09-18T20:14:17.680Z,15.90
2018-09-18T20:16:45.643Z,16.00
2018-09-18T20:19:13.595Z,16.10
2018-09-18T20:21:42.290Z,16.10
2018-09-18T20:24:11.882Z,16.10
2018-09-18T20:26:42.989Z,16.20
2018-09-18T20:29:11.835Z,16.10
2018-09-18T20:31:40.722Z,16.20
2018-09-18T20:34:10.801Z,16.10
2018-09-18T20:36:40.619Z,16.10
2018-09-18T20:39:10.014Z,16.10
2018-09-18T20:41:39.033Z,16.20
2018-09-18T20:44:08.164Z,16.20
2018-09-18T20:46:36.872Z,16.30
2018-09-18T20:51:33.108Z,16.30
2018-09-18T20:54:00.719Z,16.30
2018-09-18T20:56:29.337Z,16.30
2018-09-18T20:58:58.574Z,16.20
2018-09-18T21:01:37.257Z,16.10
2018-09-18T21:04:05.589Z,16.10
2018-09-18T21:06:34.444Z,16.10
2018-09-18T21:09:02.956Z,16.00
2018-09-18T21:11:30.926Z,16.00
2018-09-18T21:13:59.521Z,16.00
2018-09-18T21:16:28.707Z,15.90
2018-09-18T21:18:57.458Z,15.80
2018-09-18T21:21:26.055Z,15.90
2018-09-18T21:23:55.374Z,15.80
2018-09-18T21:26:23.829Z,15.90
2018-09-18T21:28:54.265Z,15.80
2018-09-18T21:31:22.761Z,15.80
2018-09-18T21:33:50.674Z,15.80
2018-09-18T21:36:18.172Z,15.70
2018-09-18T21:38:46.265Z,15.70
2018-09-18T21:41:15.173Z,15.70
2018-09-18T21:43:43.222Z,15.80
2018-09-18T21:46:11.537Z,15.80
2018-09-18T21:48:39.584Z,15.70
2018-09-18T21:51:07.263Z,15.70
2018-09-18T21:53:35.065Z,15.70
2018-09-18T21:56:03.380Z,15.70
2018-09-18T21:58:31.774Z,15.60
2018-09-18T22:01:04.807Z,15.70
2018-09-18T22:03:34.026Z,15.70
2018-09-18T22:06:03.502Z,15.70
2018-09-18T22:08:32.112Z,15.70
2018-09-18T22:11:00.632Z,15.70
2018-09-18T22:13:29.685Z,15.70
2018-09-18T22:15:58.290Z,15.80
2018-09-18T22:18:27.638Z,15.80
2018-09-18T22:20:55.854Z,15.80
2018-09-18T22:23:24.064Z,15.90
2018-09-18T22:25:52.569Z,15.90
2018-09-18T22:28:20.900Z,15.90
2018-09-18T22:30:49.308Z,15.90
2018-09-18T22:33:18.552Z,16.00
2018-09-18T22:35:47.357Z,15.90
2018-09-18T22:38:15.937Z,15.80
2018-09-18T22:40:44.093Z,15.80
2018-09-18T22:43:13.323Z,15.80
2018-09-18T22:45:42.225Z,15.80
2018-09-18T22:48:12.257Z,15.80
2018-09-18T22:50:42.142Z,15.80
2018-09-18T22:53:10.410Z,15.80
2018-09-18T22:55:39.593Z,15.80
2018-09-18T22:58:07.955Z,15.80
2018-09-18T23:00:38.129Z,15.70
2018-09-18T23:03:06.408Z,15.70
2018-09-18T23:05:35.279Z,15.70
2018-09-18T23:08:03.157Z,15.70
2018-09-18T23:10:32.146Z,15.70
2018-09-18T23:13:00.358Z,15.70
2018-09-18T23:15:28.274Z,15.80
2018-09-18T23:17:56.121Z,15.70
2018-09-18T23:20:24.161Z,15.80
2018-09-18T23:22:52.126Z,15.80
2018-09-18T23:25:20.819Z,15.80
2018-09-18T23:27:48.717Z,15.80
2018-09-18T23:30:17.282Z,15.80
2018-09-18T23:32:45.169Z,15.80
2018-09-18T23:35:13.421Z,15.80
2018-09-18T23:37:41.077Z,15.90
2018-09-18T23:40:10.169Z,15.80
2018-09-18T23:42:42.905Z,16.00
2018-09-18T23:45:10.939Z,16.10
2018-09-18T23:47:38.933Z,16.00
2018-09-18T23:50:06.497Z,16.10
2018-09-18T23:52:34.846Z,16.10
2018-09-18T23:55:03.485Z,16.00
2018-09-18T23:57:31.660Z,16.10
2018-09-18T23:59:59.386Z,16.10
